Terminal Aerodrome Forecast
Issued by NWS

Home | Current Version | Previous Version | Text Only | Print | Product List | Glossary On
Versions: 1 2 3 4 5 6 7 8 9 10 11 12 13 14 15 16 17 18 19 20
000
FTUS45 KSLC 181726
TAFLGU
TAF
KLGU 181726Z 1818/1918 35014KT P6SM VCSH BKN060 OVC100
     FM190300 VRB06KT P6SM SCT070 BKN100
     FM190800 VRB03KT P6SM FEW090 SCT140=

USA.gov is the U.S. government's official web portal to all federal, state and local government web resources and services.